Flight Track Log - Related Links

Times and Time Zones

All times are in EDT time to prevent confusion due to time zone crossing. See the JA-614J flight status page for this flight to view local times or setup timezone preferences in your user account.

Time Position Orientation Groundspeed Altitude Reporting Facility
EDT Latitude Longitude Course Direction KTS MPH feet Rate Location/Type
Sat 01:13:00 PM 21.4327 106.1507 57° Northeast  Level Estimated
Sat 01:14:00 PM 21.5028 106.2659 57° Northeast  Level Estimated
Sat 01:15:00 PM 21.5730 106.3813 57° Northeast  Level Estimated
Sat 01:16:00 PM 21.6430 106.4968 57° Northeast  Level Estimated
Sat 01:17:00 PM 21.7129 106.6124 57° Northeast  Level Estimated
Sat 01:18:00 PM 21.7828 106.7281 57° Northeast  Level Estimated
Sat 01:19:00 PM 21.8526 106.8439 57° Northeast  Level Estimated
Sat 01:20:00 PM 21.9223 106.9598 57° Northeast  Level Estimated
Sat 01:21:00 PM 21.9924 107.0768 57° Northeast  Level Estimated
Sat 01:22:00 PM 22.0625 107.1938 57° Northeast  Level Estimated
Sat 01:23:00 PM 22.1325 107.3110 57° Northeast  Level Estimated
Sat 01:24:00 PM 22.2024 107.4283 57° Northeast  Level Estimated
Sat 01:25:00 PM 22.2722 107.5457 57° Northeast  Level Estimated
Sat 01:26:00 PM 22.3419 107.6632 57° Northeast  Level Estimated
Sat 01:27:00 PM 22.4116 107.7809 57° Northeast  Level Estimated
Sat 01:28:00 PM 22.4811 107.8986 57° Northeast  Level Estimated
Sat 01:29:00 PM 22.5506 108.0165 57° Northeast  Level Estimated
Sat 01:30:00 PM 22.6200 108.1345 57° Northeast  Level Estimated
Sat 01:31:00 PM 22.6893 108.2526 58° Northeast  Level Estimated
Sat 01:32:00 PM 22.7585 108.3708 58° Northeast  Level Estimated
Sat 01:33:00 PM 22.8277 108.4892 58° Northeast  Level Estimated
Sat 01:34:00 PM 22.8970 108.6081 58° Northeast  Level Estimated
Sat 01:35:00 PM 22.9662 108.7272 58° Northeast  Level Estimated
Sat 01:36:00 PM 23.0353 108.8464 58° Northeast  Level Estimated
Sat 01:37:00 PM 23.1044 108.9657 58° Northeast  Level Estimated
Sat 01:38:00 PM 23.1733 109.0851 58° Northeast  Level Estimated
Sat 01:39:00 PM 23.2422 109.2046 58° Northeast  Level Estimated
Sat 01:40:00 PM 23.3110 109.3243 58° Northeast  Level Estimated
Sat 01:41:00 PM 23.3797 109.4441 58° Northeast  Level Estimated
Sat 01:42:00 PM 23.4483 109.5640 58° Northeast  Level Estimated
Sat 01:43:00 PM 23.5168 109.6841 58° Northeast  Level Estimated
Sat 01:44:00 PM 23.5852 109.8042 58° Northeast  Level Estimated
Sat 01:45:00 PM 23.6535 109.9245 58° Northeast  Level Estimated
Sat 01:46:00 PM 23.7217 110.0449 58° Northeast  Level Estimated
Sat 01:47:00 PM 23.7899 110.1655 58° Northeast  Level Estimated
Sat 01:48:00 PM 23.8579 110.2861 58° Northeast  Level Estimated
Sat 01:49:00 PM 23.9261 110.4074 58° Northeast  Level Estimated
Sat 01:50:00 PM 23.9942 110.5288 58° Northeast  Level Estimated
Sat 01:51:00 PM 24.0622 110.6503 58° Northeast  Level Estimated
Sat 01:52:00 PM 24.1301 110.7720 59° Northeast  Level Estimated
Sat 01:53:00 PM 24.1980 110.8938 59° Northeast  Level Estimated
Sat 01:54:00 PM 24.2657 111.0157 59° Northeast  Level Estimated
Sat 01:54:02 PM 22.9300 111.6210 59° Northeast 550 633 35,100  Level FlightAware ADS-B
Sat 01:54:42 PM 22.9410 111.7240 83° East 549 632 35,100  Level FlightAware ADS-B
Sat 01:55:27 PM 22.9540 111.8530 84° East 547 629 35,100  Level FlightAware ADS-B
Sat 01:56:07 PM 22.9660 111.9610 83° East 546 628 35,100  Level FlightAware ADS-B
Sat 01:56:52 PM 22.9790 112.0860 84° East 545 627 35,100  Level FlightAware ADS-B
Sat 01:57:32 PM 22.9890 112.1900 84° East 544 626 35,100  Level FlightAware ADS-B
Sat 01:58:17 PM 23.0020 112.3110 83° East 545 627 35,100  Level FlightAware ADS-B
Sat 01:58:57 PM 23.0130 112.4230 84° East 546 628 35,100  Level FlightAware ADS-B
Sat 01:59:52 PM 23.0140 112.5770 90° East 551 634 35,100  Level FlightAware ADS-B
Sat 02:00:37 PM 23.0060 112.6990 94° East 559 643 35,100  Level FlightAware ADS-B
Sat 02:01:17 PM 22.9980 112.8130 94° East 562 647 35,100  Level FlightAware ADS-B
Sat 02:02:02 PM 22.9890 112.9420 94° East 558 642 35,100  Level FlightAware ADS-B
Sat 02:02:42 PM 22.9810 113.0520 94° East 556 640 35,100  Level FlightAware ADS-B
Sat 02:03:22 PM 22.9750 113.1620 93° East 557 641 35,100  Level FlightAware ADS-B
Sat 02:04:07 PM 22.9810 113.2840 87° East 556 640 35,100  Level FlightAware ADS-B
Sat 02:04:47 PM 22.9930 113.3960 83° East 555 639 35,100  Level FlightAware ADS-B
Sat 02:05:32 PM 23.0060 113.5200 83° East 555 639 35,100  Level FlightAware ADS-B
Sat 02:06:12 PM 23.0180 113.6310 83° East 556 640 35,100  Level FlightAware ADS-B
Sat 02:06:52 PM 23.0300 113.7410 83° East 556 640 35,100  Level FlightAware ADS-B
Sat 02:07:37 PM 23.0570 113.8620 76° East 550 633 35,100  Level FlightAware ADS-B
Sat 02:08:17 PM 23.1210 113.9440 50° Northeast 527 606 35,100  Level FlightAware ADS-B
Sat 02:09:02 PM 23.2110 114.0220 39° Northeast 530 610 35,100  Level FlightAware ADS-B
Sat 02:09:42 PM 23.2870 114.0860 38° Northeast 531 611 35,100  Level FlightAware ADS-B
Sat 02:10:27 PM 23.3720 114.1580 38° Northeast 530 610 35,100  Level FlightAware ADS-B
Sat 02:11:07 PM 23.4490 114.2250 39° Northeast 531 611 35,100  Level FlightAware ADS-B
Sat 02:11:47 PM 23.5260 114.2910 38° Northeast 531 611 35,100  Level FlightAware ADS-B
Sat 02:12:32 PM 23.6160 114.3680 38° Northeast 532 612 35,100  Level FlightAware ADS-B
Sat 02:13:17 PM 23.7020 114.4390 37° Northeast 530 610 35,100  Level FlightAware ADS-B
Sat 02:13:57 PM 23.7800 114.5030 37° Northeast 532 612 35,100  Level FlightAware ADS-B
Sat 02:14:42 PM 23.8710 114.5770 37° Northeast 534 615 35,100  Level FlightAware ADS-B
Sat 02:15:22 PM 23.9480 114.6410 37° Northeast 535 616 35,100  Level FlightAware ADS-B
Sat 02:16:02 PM 24.0270 114.7060 37° Northeast 536 617 35,100  Level FlightAware ADS-B
Sat 02:16:47 PM 24.1190 114.7820 37° Northeast 537 618 35,100  Level FlightAware ADS-B
Sat 02:17:27 PM 24.1960 114.8460 37° Northeast 537 618 35,100  Level FlightAware ADS-B
Sat 02:18:02 PM 24.2620 114.8920 32° Northeast 520 598 35,100  Level FlightAware ADS-B
Sat 02:18:52 PM 24.3810 114.9300 16° North 498 573 35,100  Level FlightAware ADS-B
Sat 02:19:47 PM 24.4950 114.9570 12° North 496 571 35,100  Level FlightAware ADS-B
Sat 02:20:32 PM 24.6060 114.9850 13° North 503 579 35,100  Level FlightAware ADS-B
Sat 02:21:12 PM 24.6990 115.0080 13° North 502 578 35,100  Level FlightAware ADS-B
Sat 02:22:07 PM 24.8260 115.0390 12° North 498 573 35,100  Level FlightAware ADS-B
Sat 02:22:47 PM 24.9060 115.0590 13° North 496 571 35,100  Level FlightAware ADS-B
Sat 02:23:32 PM 24.9970 115.0800 12° North 496 571 35,100  Level FlightAware ADS-B
Sat 02:24:12 PM 25.0730 115.0980 12° North 496 571 35,100  Level FlightAware ADS-B
Sat 02:24:52 PM 25.1500 115.1160 12° North 496 571 35,100  Level FlightAware ADS-B
Sat 02:25:32 PM 25.2260 115.1340 12° North 496 571 35,100  Level FlightAware ADS-B
Sat 02:26:12 PM 25.3020 115.1520 12° North 496 571 35,100  Level FlightAware ADS-B
Sat 02:27:02 PM 25.3980 115.1740 12° North 496 571 35,100  Level FlightAware ADS-B
Sat 02:27:42 PM 25.4740 115.1920 12° North 496 571 35,100  Level FlightAware ADS-B
Sat 02:28:22 PM 25.5500 115.2100 12° North 496 571 35,100  Level FlightAware ADS-B
Sat 02:29:02 PM 25.6270 115.2280 12° North 496 571 35,100  Level FlightAware ADS-B
Sat 02:29:42 PM 25.7030 115.2460 12° North 496 571 35,100  Level FlightAware ADS-B
Sat 02:30:32 PM 25.7980 115.2690 12° North 496 571 35,100  Level FlightAware ADS-B
Sat 02:31:12 PM 25.8750 115.2870 12° North 496 571 35,100  Level FlightAware ADS-B
Sat 02:31:52 PM 25.9510 115.3050 12° North 496 571 35,100  Level FlightAware ADS-B
Sat 02:32:32 PM 26.0270 115.3230 12° North 496 571 35,100  Level FlightAware ADS-B
Sat 02:35:00 PM 26.1898 115.6312 59° Northeast  Level Estimated
Sat 02:36:00 PM 26.2556 115.7565 60° Northeast  Level Estimated
Sat 02:37:00 PM 26.3212 115.8818 60° Northeast  Level Estimated
Sat 02:38:00 PM 26.3868 116.0073 60° Northeast  Level Estimated
Sat 02:39:00 PM 26.4523 116.1329 60° Northeast  Level Estimated
Sat 02:40:00 PM 26.5177 116.2587 60° Northeast  Level Estimated
Sat 02:41:00 PM 26.5829 116.3846 60° Northeast  Level Estimated
Sat 02:42:00 PM 26.6480 116.5107 60° Northeast  Level Estimated
Sat 02:43:00 PM 26.7131 116.6369 60° Northeast  Level Estimated
Sat 02:44:00 PM 26.7782 116.7638 60° Northeast  Level Estimated
Sat 02:45:00 PM 26.8433 116.8908 60° Northeast  Level Estimated
Sat 02:46:00 PM 26.9082 117.0179 60° Northeast  Level Estimated
Sat 02:47:00 PM 26.9730 117.1452 60° Northeast  Level Estimated
Sat 02:48:00 PM 27.0378 117.2726 60° Northeast  Level Estimated
Sat 02:49:00 PM 27.1024 117.4002 60° Northeast  Level Estimated
Sat 02:50:00 PM 27.1668 117.5279 60° Northeast  Level Estimated
Sat 02:51:00 PM 27.2312 117.6558 60° Northeast  Level Estimated
Sat 02:52:00 PM 27.2955 117.7838 61° Northeast  Level Estimated
Sat 02:53:00 PM 27.3596 117.9120 61° Northeast  Level Estimated
Sat 02:54:00 PM 27.4236 118.0403 61° Northeast  Level Estimated
Sat 02:55:00 PM 27.4875 118.1688 61° Northeast  Level Estimated
Sat 02:55:57 PM 28.5590 118.2290 61° Northeast 557 641 35,100  Level FlightAware ADS-B
Sat 02:56:00 PM 27.5515 118.2979 61° Northeast  Level Estimated
Sat 02:56:37 PM 28.6290 118.3160 47° Northeast 557 641 35,100  Level FlightAware ADS-B
Sat 02:57:22 PM 28.6980 118.4010 47° Northeast 557 641 35,100  Level FlightAware ADS-B
Sat 02:58:02 PM 28.7580 118.4740 47° Northeast 557 641 35,100  Level FlightAware ADS-B
Sat 02:58:42 PM 28.8180 118.5470 47° Northeast 557 641 35,100  Level FlightAware ADS-B
Sat 02:59:22 PM 28.8780 118.6200 47° Northeast 557 641 35,100  Level FlightAware ADS-B
Sat 03:00:12 PM 28.9520 118.7120 47° Northeast 557 641 35,100  Level FlightAware ADS-B
Sat 03:00:52 PM 29.0120 118.7850 47° Northeast 557 641 35,100  Level FlightAware ADS-B
Sat 03:01:32 PM 29.0720 118.8580 47° Northeast 557 641 35,100  Level FlightAware ADS-B
Sat 03:02:12 PM 29.1310 118.9310 47° Northeast 557 641 35,100  Level FlightAware ADS-B
Sat 03:02:52 PM 29.1910 119.0050 47° Northeast 557 641 35,100  Level FlightAware ADS-B
Sat 03:03:32 PM 29.2510 119.0780 47° Northeast 557 641 35,100  Level FlightAware ADS-B
Sat 03:04:22 PM 29.3260 119.1700 47° Northeast 557 641 35,100  Level FlightAware ADS-B
Sat 03:05:02 PM 29.3850 119.2440 48° Northeast 557 641 35,100  Level FlightAware ADS-B
Sat 03:05:42 PM 29.4450 119.3170 47° Northeast 557 641 35,100  Level FlightAware ADS-B
Sat 03:06:22 PM 29.5050 119.3910 47° Northeast 557 641 35,100 -367 Level FlightAware ADS-B
Sat 03:09:00 PM 29.6505 119.7513 65° Northeast  Level Estimated
Sat 03:10:00 PM 29.7055 119.8884 65° Northeast  Level Estimated
Sat 03:11:00 PM 29.7604 120.0256 65° Northeast  Level Estimated
Sat 03:12:00 PM 29.8151 120.1630 65° Northeast  Level Estimated
Sat 03:13:00 PM 29.8697 120.3006 65° Northeast  Level Estimated
Sat 03:14:00 PM 29.9241 120.4382 65° Northeast  Level Estimated
Sat 03:15:00 PM 29.9784 120.5761 66° East  Level Estimated
Sat 03:16:00 PM 30.0326 120.7141 66° East  Level Estimated
Sat 03:16:52 PM 30.8610 120.5100 66° East 523 602 31,000  Level FlightAware ADS-B
Sat 03:17:32 PM 30.8930 120.6200 71° East 530 610 31,000  Level FlightAware ADS-B
Sat 03:18:27 PM 30.9300 120.7690 74° East 530 610 31,000  Level FlightAware ADS-B
Sat 03:19:07 PM 30.9560 120.8750 74° East 528 608 31,000  Level FlightAware ADS-B
Sat 03:19:47 PM 30.9820 120.9820 74° East 527 606 31,000  Level FlightAware ADS-B
Sat 03:20:32 PM 31.0130 121.1080 74° East 525 604 31,000  Level FlightAware ADS-B
Sat 03:21:12 PM 31.0410 121.2180 73° East 525 604 31,000  Level FlightAware ADS-B
Sat 03:21:57 PM 31.0650 121.3440 77° East 526 605 31,000  Level FlightAware ADS-B
Sat 03:22:37 PM 31.0570 121.4600 95° East 527 606 31,000  Level FlightAware ADS-B
Sat 03:23:22 PM 31.0420 121.5770 98° East 528 608 31,000  Level FlightAware ADS-B
Sat 03:24:02 PM 31.0250 121.7000 99° East 528 608 31,000  Level FlightAware ADS-B
Sat 03:24:47 PM 31.0090 121.8200 99° East 529 609 31,000  Level FlightAware ADS-B
Sat 03:25:27 PM 30.9930 121.9360 99° East 529 609 31,000  Level FlightAware ADS-B
Sat 03:26:07 PM 30.9770 122.0500 99° East 530 610 31,000  Level FlightAware ADS-B
Sat 03:26:47 PM 30.9620 122.1550 99° East 531 611 31,000  Level FlightAware ADS-B
Sat 03:27:32 PM 30.9510 122.2880 95° East 534 615 31,000  Level FlightAware ADS-B
Sat 03:28:17 PM 30.9490 122.4200 91° East 536 617 31,000  Level FlightAware ADS-B
Sat 03:28:57 PM 30.9500 122.5340 89° East 536 617 31,000  Level FlightAware ADS-B
Sat 03:29:37 PM 30.9500 122.6500 90° East 537 618 31,000  Level FlightAware ADS-B
Sat 03:30:22 PM 30.9520 122.7800 89° East 538 619 31,000  Level FlightAware ADS-B
Sat 03:31:02 PM 30.9730 122.8920 78° East 538 619 31,000  Level FlightAware ADS-B
Sat 03:31:47 PM 31.0130 123.0060 68° East 534 615 31,000  Level FlightAware ADS-B
Sat 03:32:27 PM 31.0530 123.1210 68° East 534 615 31,000  Level FlightAware ADS-B
Sat 03:33:07 PM 31.0880 123.2190 67° East 535 616 31,000  Level FlightAware ADS-B
Sat 03:33:42 PM 31.1240 123.3180 67° East 535 616 31,000  Level FlightAware ADS-B
Sat 03:34:27 PM 31.1610 123.4250 68° East 535 616 31,000  Level FlightAware ADS-B
Sat 03:35:27 PM 31.2170 123.5830 67° East 534 615 31,000  Level FlightAware ADS-B
Sat 03:36:07 PM 31.2610 123.7040 67° East 533 613 31,000  Level FlightAware ADS-B
Sat 03:36:52 PM 31.2980 123.8100 68° East 534 615 31,000  Level FlightAware ADS-B
Sat 03:37:32 PM 31.3290 123.9010 68° East 534 615 31,000  Level FlightAware ADS-B
Sat 03:38:12 PM 31.3610 123.9920 68° East 534 615 31,000  Level FlightAware ADS-B
Sat 03:38:52 PM 31.3920 124.0840 68° East 534 615 31,000  Level FlightAware ADS-B
Sat 03:39:42 PM 31.4320 124.1980 68° East 534 615 31,000  Level FlightAware ADS-B
Sat 03:40:22 PM 31.4630 124.2890 68° East 534 615 31,000  Level FlightAware ADS-B
Sat 03:41:02 PM 31.4950 124.3800 68° East 534 615 31,000  Level FlightAware ADS-B
Sat 03:41:47 PM 31.5810 124.6210 67° East 544 626 31,000  Level FlightAware ADS-B
Sat 03:42:32 PM 31.6190 124.7300 68° East 544 626 31,000  Level FlightAware ADS-B
Sat 03:43:12 PM 31.6510 124.8230 68° East 544 626 31,000  Level FlightAware ADS-B
Sat 03:43:52 PM 31.6830 124.9170 68° East 544 626 31,000  Level FlightAware ADS-B
Sat 03:44:32 PM 31.7150 125.0100 68° East 544 626 31,000  Level FlightAware ADS-B
Sat 03:45:12 PM 31.7470 125.1030 68° East 544 626 31,000  Level FlightAware ADS-B
Sat 03:46:02 PM 31.7870 125.2200 68° East 544 626 31,000  Level FlightAware ADS-B
Sat 03:46:42 PM 31.8190 125.3130 68° East 544 626 31,000  Level FlightAware ADS-B
Sat 03:47:22 PM 31.8510 125.4070 68° East 544 626 31,000  Level FlightAware ADS-B
Sat 03:48:02 PM 31.8830 125.5000 68° East 544 626 31,000  Level FlightAware ADS-B
Sat 03:48:42 PM 31.9150 125.5930 68° East 544 626 31,000  Level FlightAware ADS-B
Sat 03:49:22 PM 31.9470 125.6870 68° East 544 626 31,000  Level FlightAware ADS-B
Sat 03:50:12 PM 31.9870 125.8040 68° East 544 626 31,000  Level FlightAware ADS-B
Sat 03:50:52 PM 32.0190 125.8970 68° East 544 626 31,000  Level FlightAware ADS-B
Sat 03:51:32 PM 32.0510 125.9910 68° East 544 626 31,000 106 Level FlightAware ADS-B
Sat 03:54:00 PM 32.1680 126.3488 69° East  Level Estimated
Sat 03:55:00 PM 32.2152 126.4941 69° East  Level Estimated
Sat 03:56:00 PM 32.2622 126.6396 69° East  Level Estimated
Sat 03:57:00 PM 32.3090 126.7852 69° East  Level Estimated
Sat 03:58:00 PM 32.3557 126.9310 69° East  Level Estimated
Sat 03:59:00 PM 32.4022 127.0769 69° East  Level Estimated
Sat 04:00:00 PM 32.4485 127.2230 69° East  Level Estimated
Sat 04:01:00 PM 32.4947 127.3692 69° East  Level Estimated
Sat 04:02:00 PM 32.5407 127.5156 70° East  Level Estimated
Sat 04:03:00 PM 32.5865 127.6621 70° East  Level Estimated
Sat 04:04:00 PM 32.6321 127.8088 70° East  Level Estimated
Sat 04:05:00 PM 32.6776 127.9556 70° East  Level Estimated
Sat 04:06:00 PM 32.7229 128.1026 70° East  Level Estimated
Sat 04:07:00 PM 32.7682 128.2502 70° East  Level Estimated
Sat 04:08:00 PM 32.8134 128.3981 70° East  Level Estimated
Sat 04:09:00 PM 32.8584 128.5461 70° East  Level Estimated
Sat 04:10:00 PM 32.9031 128.6942 70° East  Level Estimated
Sat 04:11:00 PM 32.9478 128.8425 70° East  Level Estimated
Sat 04:12:00 PM 32.9922 128.9910 70° East  Level Estimated
Sat 04:13:00 PM 33.0365 129.1396 70° East  Level Estimated
Sat 04:14:00 PM 33.0806 129.2883 70° East  Level Estimated
Sat 04:15:00 PM 33.1245 129.4373 71° East  Level Estimated
Sat 04:16:00 PM 33.1682 129.5863 71° East  Level Estimated
Sat 04:17:00 PM 33.2118 129.7355 71° East  Level Estimated
Sat 04:18:00 PM 33.2551 129.8848 71° East  Level Estimated
Sat 04:19:00 PM 33.2984 130.0343 71° East  Level Estimated
Sat 04:20:00 PM 33.3414 130.1839 71° East  Level Estimated
Sat 04:21:00 PM 33.3842 130.3337 71° East  Level Estimated
Sat 04:22:00 PM 33.4269 130.4837 71° East  Level Estimated
Sat 04:23:00 PM 33.4693 130.6337 71° East  Level Estimated
Sat 04:24:00 PM 33.5117 130.7840 71° East  Level Estimated
Sat 04:25:00 PM 33.5538 130.9343 71° East  Level Estimated
Sat 04:26:00 PM 33.5957 131.0849 71° East  Level Estimated
Sat 04:27:00 PM 33.6376 131.2361 72° East  Level Estimated
Sat 04:28:00 PM 33.6794 131.3875 72° East  Level Estimated
Sat 04:28:32 PM 33.2630 132.8370 72° East 552 635 35,000  Level FlightAware ADS-B
Sat 04:29:00 PM 33.7209 131.5391 72° East  Level Estimated
Sat 04:29:22 PM 33.2840 133.0120 82° East 551 634 35,000  Level FlightAware ADS-B
Sat 04:30:02 PM 33.2980 133.1300 82° East 551 634 35,000  Level FlightAware ADS-B
Sat 04:31:42 PM 33.3320 133.4290 82° East 553 636 35,000  Level FlightAware ADS-B
Sat 04:32:22 PM 33.3460 133.5440 82° East 553 636 35,000  Level FlightAware ADS-B
Sat 04:33:07 PM 33.3610 133.6810 82° East 553 636 35,000  Level FlightAware ADS-B
Sat 04:33:47 PM 33.3750 133.8080 82° East 553 636 35,000  Level FlightAware ADS-B
Sat 04:34:32 PM 33.3910 133.9450 82° East 554 638 35,000  Level FlightAware ADS-B
Sat 04:35:12 PM 33.4040 134.0660 83° East 554 638 35,000  Level FlightAware ADS-B
Sat 04:35:57 PM 33.4190 134.2020 82° East 554 638 35,000  Level FlightAware ADS-B
Sat 04:36:37 PM 33.4320 134.3250 83° East 555 639 35,000  Level FlightAware ADS-B
Sat 04:37:17 PM 33.4450 134.4440 83° East 555 639 35,000  Level FlightAware ADS-B
Sat 04:38:02 PM 33.4600 134.5830 83° East 556 640 35,000  Level FlightAware ADS-B
Sat 04:38:47 PM 33.4890 134.7140 75° East 555 639 35,000  Level FlightAware ADS-B
Sat 04:39:27 PM 33.5200 134.8320 72° East 556 640 35,000  Level FlightAware ADS-B
Sat 04:40:12 PM 33.5550 134.9660 73° East 556 640 35,000  Level FlightAware ADS-B
Sat 04:40:52 PM 33.5860 135.0810 72° East 556 640 35,000  Level FlightAware ADS-B
Sat 04:41:32 PM 33.6170 135.1990 72° East 557 641 35,000  Level FlightAware ADS-B
Sat 04:42:17 PM 33.6520 135.3330 73° East 557 641 35,000  Level FlightAware ADS-B
Sat 04:42:57 PM 33.6830 135.4520 73° East 556 640 35,000  Level FlightAware ADS-B
Sat 04:43:37 PM 33.7130 135.5690 73° East 556 640 35,000  Level FlightAware ADS-B
Sat 04:44:22 PM 33.7470 135.7020 73° East 556 640 35,000  Level FlightAware ADS-B
Sat 04:45:02 PM 33.7760 135.8180 73° East 557 641 35,000  Level FlightAware ADS-B
Sat 04:45:42 PM 33.8070 135.9390 73° East 556 640 35,000  Level FlightAware ADS-B
Sat 04:46:27 PM 33.8400 136.0710 73° East 556 640 35,000  Level FlightAware ADS-B
Sat 04:47:07 PM 33.8700 136.1890 73° East 557 641 35,000  Level FlightAware ADS-B
Sat 04:47:52 PM 33.9040 136.3220 73° East 556 640 35,000  Level FlightAware ADS-B
Sat 04:48:32 PM 33.9330 136.4390 73° East 556 640 35,000  Level FlightAware ADS-B
Sat 04:49:12 PM 33.9620 136.5580 74° East 557 641 35,000  Level FlightAware ADS-B
Sat 04:49:47 PM 33.9860 136.6530 73° East 557 641 35,000  Level FlightAware ADS-B
Sat 04:50:37 PM 34.0260 136.8150 73° East 553 636 35,000  Level FlightAware ADS-B
Sat 04:51:22 PM 34.0580 136.9480 74° East 553 636 35,000  Level FlightAware ADS-B
Sat 04:52:02 PM 34.0870 137.0680 74° East 553 636 35,000  Level FlightAware ADS-B
Sat 04:52:42 PM 34.1160 137.1850 73° East 553 636 35,000  Level FlightAware ADS-B
Sat 04:53:27 PM 34.1480 137.3160 74° East 553 636 35,000  Level FlightAware ADS-B
Sat 04:54:07 PM 34.1770 137.4390 74° East 554 638 35,000  Level FlightAware ADS-B
Sat 04:54:52 PM 34.2100 137.5740 73° East 561 646 35,000  Level FlightAware ADS-B
Sat 04:55:32 PM 34.2380 137.6940 74° East 564 649 35,000  Level FlightAware ADS-B
Sat 04:56:12 PM 34.2670 137.8160 74° East 565 650 35,000  Level FlightAware ADS-B
Sat 04:56:57 PM 34.2990 137.9540 74° East 566 651 35,000  Level FlightAware ADS-B
Sat 04:57:37 PM 34.3280 138.0770 74° East 566 651 35,000  Level FlightAware ADS-B
Sat 04:58:17 PM 34.3560 138.1970 74° East 561 646 35,000  Level FlightAware ADS-B
Sat 04:59:02 PM 34.3870 138.3300 74° East 559 643 35,000  Level FlightAware ADS-B
Sat 04:59:42 PM 34.4150 138.4520 74° East 564 649 35,000  Level FlightAware ADS-B
Sat 05:00:27 PM 34.4470 138.5910 74° East 564 649 35,000  Level FlightAware ADS-B
Sat 05:01:07 PM 34.4750 138.7140 75° East 567 652 35,000  Level FlightAware ADS-B
Sat 05:01:47 PM 34.5030 138.8360 74° East 569 655 35,000  Level FlightAware ADS-B
Sat 05:02:32 PM 34.5340 138.9740 75° East 571 657 35,000  Level FlightAware ADS-B
Sat 05:03:12 PM 34.5610 139.0960 75° East 570 656 35,000  Level FlightAware ADS-B
Sat 05:03:57 PM 34.5930 139.2370 75° East 565 650 35,000 -212 Level FlightAware ADS-B
Sat 05:04:37 PM 34.6200 139.3580 75° East 553 636 34,700 -1,694 Descending FlightAware ADS-B
Sat 05:05:22 PM 34.6500 139.4930 75° East 556 640 32,600 -2,541 Descending FlightAware ADS-B
Sat 05:06:02 PM 34.6760 139.6140 75° East 543 625 31,100 -2,250 Descending FlightAware ADS-B
Sat 05:06:42 PM 34.7010 139.7280 75° East 540 621 29,600 -1,976 Descending FlightAware ADS-B
Sat 05:07:27 PM 34.7300 139.8630 75° East 526 605 28,300 -1,835 Descending FlightAware ADS-B
Sat 05:08:07 PM 34.7540 139.9740 75° East 517 595 27,000 -2,047 Descending FlightAware ADS-B
Sat 05:08:52 PM 34.7820 140.1010 75° East 508 585 25,400 -2,080 Descending FlightAware ADS-B
Sat 05:09:22 PM 34.7990 140.1790 75° East 498 573 24,400 -2,080 Descending FlightAware ADS-B
Sat 05:10:07 PM 34.8290 140.2940 72° East 486 559 22,800 -2,337 Descending FlightAware ADS-B
Sat 05:10:57 PM 34.8960 140.3980 52° Northeast 465 535 20,700 -2,667 Descending FlightAware ADS-B
Sat 05:11:37 PM 34.9610 140.4600 38° Northeast 450 518 18,800 -3,035 Descending FlightAware ADS-B
Sat 05:12:22 PM 35.0330 140.5290 38° Northeast 430 495 16,400 -3,176 Descending FlightAware ADS-B
Sat 05:13:02 PM 35.0980 140.5900 38° Northeast 410 472 14,300 -2,850 Descending FlightAware ADS-B
Sat 05:13:42 PM 35.1600 140.6470 37° Northeast 400 460 12,600 -1,835 Descending FlightAware ADS-B
Sat 05:14:27 PM 35.2330 140.6710 15° North 384 442 11,700 -1,200 Descending FlightAware ADS-B
Sat 05:14:57 PM 35.2880 140.6670 357° North 372 428 11,100 -857 Descending FlightAware ADS-B
Sat 05:15:37 PM 35.3590 140.6620 357° North 370 426 10,700 -525 Descending FlightAware ADS-B
Sat 05:16:17 PM 35.4250 140.6570 356° North 369 425 10,400 -424 Descending FlightAware ADS-B
Sat 05:17:02 PM 35.5050 140.6510 357° North 355 409 10,100 -225 Descending FlightAware ADS-B
Sat 05:17:37 PM 35.5610 140.6480 358° North 326 375 10,100 -212 Level FlightAware ADS-B
Sat 05:18:27 PM 35.6350 140.6450 358° North 289 333 9,800 -480 Descending FlightAware ADS-B
Sat 05:18:52 PM 35.6670 140.6360 347° North 280 322 9,500 -764 Descending FlightAware ADS-B
Sat 05:19:22 PM 35.7020 140.6180 337° Northwest 263 303 9,100 -1,091 Descending FlightAware ADS-B
Sat 05:19:47 PM 35.7320 140.6040 339° North 262 302 8,500 -1,418 Descending FlightAware ADS-B
Sat 05:20:17 PM 35.7660 140.5880 339° North 262 302 7,800 -1,418 Descending FlightAware ADS-B
Sat 05:20:42 PM 35.7950 140.5740 339° North 265 305 7,200 -1,418 Descending FlightAware ADS-B
Sat 05:21:12 PM 35.8300 140.5570 339° North 263 303 6,500 -1,300 Descending FlightAware ADS-B
Sat 05:21:42 PM 35.8650 140.5400 339° North 262 302 5,900 -1,333 Descending FlightAware ADS-B
Sat 05:21:57 PM 35.8800 140.5290 329° Northwest 262 302 5,500 -1,350 Descending FlightAware ADS-B
Sat 05:22:22 PM 35.9030 140.5040 319° Northwest 257 296 5,000 -982 Descending FlightAware ADS-B
Sat 05:22:52 PM 35.9310 140.4770 322° Northwest 247 284 4,600 -655 Descending FlightAware ADS-B
Sat 05:23:17 PM 35.9520 140.4550 320° Northwest 227 261 4,400 -655 Descending FlightAware ADS-B
Sat 05:23:47 PM 35.9760 140.4310 321° Northwest 210 242 4,000 -800 Descending FlightAware ADS-B
Sat 05:24:02 PM 35.9820 140.4160 296° West 189 217 3,800 -1,000 Descending FlightAware ADS-B
Sat 05:24:17 PM 35.9870 140.4010 292° West 186 214 3,500 -873 Descending FlightAware ADS-B
Sat 05:24:57 PM 35.9780 140.3680 251° West 169 194 3,000 -873 Descending FlightAware ADS-B
Sat 05:25:12 PM 35.9730 140.3560 243° Southwest 168 193 2,700 -1,309 Descending FlightAware ADS-B
Sat 05:25:52 PM 35.9600 140.3180 247° West 171 197 1,800 -771 Descending FlightAware ADS-B
Sat 05:26:22 PM 35.9490 140.2980 236° Southwest 155 178 1,800  Level FlightAware ADS-B
Sat 05:26:27 PM 35.9430 140.2960 195° South 155 178 1,800  Level FlightAware ADS-B
Sat 05:26:57 PM 35.9220 140.2980 176° South 160 184 1,800  Level FlightAware ADS-B
Sat 05:27:17 PM 35.9090 140.3040 160° South 168 193 1,800  Level FlightAware ADS-B
Sat 05:27:47 PM 35.8890 140.3180 150° Southeast 161 185 1,800 -109 Level FlightAware ADS-B
Sat 05:28:12 PM 35.8740 140.3280 152° Southeast 149 171 1,700 -533 Descending FlightAware ADS-B
Sat 05:28:32 PM 35.8610 140.3380 148° Southeast 141 162 1,400 -840 Descending FlightAware ADS-B
Sat 05:29:02 PM 35.8440 140.3500 150° Southeast 135 155 1,000 -655 Descending FlightAware ADS-B
Sat 05:29:27 PM 35.8330 140.3580 149° Southeast 133 153 800 -240 Descending FlightAware ADS-B
Sat 05:29:52 PM 35.8210 140.3670 149° Southeast 133 153 800  Level FlightAware ADS-B

Login

Don't have an account? Register now (free) for customized features, flight alerts, and more!